Time;durP1;ratioP1;P1;durP2;ratioP2;P2;SDS_P1;SDS_P2;PMS_P1;PMS_P2;Temp;Humidity;BMP_temperature;BMP_pressure;BME280_temperature;BME280_humidity;BME280_pressure;Samples;Min_cycle;Max_cycle;Signal;HPM_P1;HPM_P2
2023/05/24 00:01:37;;;;;;;10.30;7.10;;;;;;;16.18;75.44;96336.42;109031;1267;40428;-83
2023/05/24 00:04:09;;;;;;;7.80;6.80;;;;;;;16.19;75.65;96333.89;109062;1273;22560;-82
2023/05/24 00:06:43;;;;;;;8.30;6.80;;;;;;;16.18;75.62;96334.02;109106;1272;22515;-81
2023/05/24 00:09:23;;;;;;;9.00;6.70;;;;;;;16.16;75.83;96335.52;109071;1272;22473;-82
2023/05/24 00:12:00;;;;;;;7.40;6.60;;;;;;;16.16;75.94;96335.48;109027;1274;61055;-82
2023/05/24 00:14:31;;;;;;;7.90;6.30;;;;;;;16.13;75.97;96333.61;109119;1267;23396;-82
2023/05/24 00:17:07;;;;;;;9.60;6.50;;;;;;;16.12;76.11;96338.39;109155;1266;22530;-82
2023/05/24 00:19:41;;;;;;;8.40;6.90;;;;;;;16.11;76.34;96336.89;109137;1273;24270;-82
2023/05/24 00:22:12;;;;;;;10.70;6.30;;;;;;;16.10;76.54;96337.55;109067;1274;57840;-84
2023/05/24 00:24:44;;;;;;;9.10;6.50;;;;;;;16.09;76.69;96335.23;109090;1274;22522;-83
2023/05/24 00:27:15;;;;;;;7.50;6.70;;;;;;;16.12;76.89;96334.88;109078;1267;25391;-82
2023/05/24 00:29:46;;;;;;;8.00;6.50;;;;;;;16.14;76.84;96334.36;109094;1273;22463;-82
2023/05/24 00:32:20;;;;;;;9.10;6.70;;;;;;;16.16;77.04;96332.27;109079;1272;40986;-82
2023/05/24 00:34:56;;;;;;;8.40;6.70;;;;;;;16.18;77.04;96333.96;109141;1273;22520;-82
2023/05/24 00:37:30;;;;;;;8.90;6.50;;;;;;;16.22;77.22;96334.31;109067;1269;22814;-83
2023/05/24 00:40:05;;;;;;;7.90;6.30;;;;;;;16.26;77.25;96330.26;109114;1273;22537;-82
2023/05/24 00:42:40;;;;;;;7.50;6.40;;;;;;;16.29;77.21;96329.84;109055;1273;109392;-82
2023/05/24 00:45:16;;;;;;;8.20;7.40;;;;;;;16.30;77.32;96334.01;109068;1274;24337;-82
2023/05/24 00:47:48;;;;;;;7.70;6.50;;;;;;;16.28;77.14;96329.80;109077;1274;22665;-82
2023/05/24 00:50:21;;;;;;;9.10;6.20;;;;;;;16.23;77.22;96333.14;109084;1273;25432;-82
2023/05/24 00:53:01;;;;;;;9.60;7.60;;;;;;;16.20;77.47;96335.45;109011;1267;106463;-82
2023/05/24 00:55:34;;;;;;;8.60;6.70;;;;;;;16.16;77.56;96334.88;109085;1273;25287;-82
2023/05/24 00:58:08;;;;;;;9.00;7.00;;;;;;;16.13;77.83;96334.05;109081;1273;22526;-82
2023/05/24 01:00:48;;;;;;;8.40;6.60;;;;;;;16.12;77.99;96337.33;109097;1267;22515;-82
2023/05/24 01:03:21;;;;;;;7.50;6.70;;;;;;;16.09;78.04;96338.66;109070;1270;53104;-82
2023/05/24 01:05:55;;;;;;;9.40;6.90;;;;;;;16.08;78.05;96333.58;109078;1270;23918;-82
2023/05/24 01:08:42;;;;;;;8.50;6.50;;;;;;;16.05;78.24;96337.95;109108;1266;22439;-82
2023/05/24 01:11:26;;;;;;;7.60;5.70;;;;;;;16.02;78.45;96336.94;109116;1267;25275;-82
2023/05/24 01:14:13;;;;;;;8.00;6.70;;;;;;;16.00;78.54;96338.08;109124;1266;24178;-82
2023/05/24 01:16:56;;;;;;;8.50;6.80;;;;;;;15.99;78.77;96337.49;108883;1274;24006;-82
2023/05/24 01:19:51;;;;;;;7.90;6.80;;;;;;;15.98;78.73;96339.00;109110;1270;22529;-82
2023/05/24 01:22:48;;;;;;;7.50;6.40;;;;;;;15.97;79.06;96336.09;109040;1273;77902;-82
2023/05/24 01:25:40;;;;;;;8.90;7.50;;;;;;;15.93;79.16;96336.04;109106;1273;22490;-82
2023/05/24 01:28:18;;;;;;;7.50;6.40;;;;;;;15.91;79.60;96331.80;109048;1269;23202;-82
2023/05/24 01:30:54;;;;;;;8.20;6.80;;;;;;;15.87;79.68;96331.64;109143;1270;23042;-82
2023/05/24 01:33:28;;;;;;;8.90;6.70;;;;;;;15.84;79.90;96329.52;109091;1273;61192;-81
2023/05/24 01:36:00;;;;;;;7.10;5.90;;;;;;;15.80;80.06;96332.80;109135;1267;22556;-82
2023/05/24 01:38:32;;;;;;;7.10;6.40;;;;;;;15.77;80.31;96332.65;109108;1274;22524;-81
2023/05/24 01:41:18;;;;;;;8.40;6.70;;;;;;;15.74;80.58;96337.20;109108;1267;22530;-82
2023/05/24 01:44:03;;;;;;;7.70;6.80;;;;;;;15.70;80.98;96334.38;109059;1267;32588;-81
2023/05/24 01:46:42;;;;;;;7.30;6.60;;;;;;;15.67;81.26;96338.39;109106;1263;24793;-82
2023/05/24 01:49:22;;;;;;;9.10;6.70;;;;;;;15.66;81.56;96340.78;109098;1270;22502;-82
2023/05/24 01:52:06;;;;;;;7.20;6.20;;;;;;;15.64;81.76;96339.31;109044;1273;63334;-81
2023/05/24 01:54:43;;;;;;;7.90;6.60;;;;;;;15.64;82.28;96341.23;109076;1274;25443;-82
2023/05/24 01:57:21;;;;;;;7.50;6.70;;;;;;;15.64;82.46;96345.48;109127;1267;24266;-82
2023/05/24 01:59:54;;;;;;;7.70;6.90;;;;;;;15.64;82.66;96345.79;109172;1267;22490;-82
2023/05/24 02:02:31;;;;;;;8.60;7.70;;;;;;;15.66;82.88;96347.80;109111;1269;36373;-82
2023/05/24 02:05:07;;;;;;;8.80;7.90;;;;;;;15.65;82.89;96347.95;109150;1273;23855;-81
2023/05/24 02:07:41;;;;;;;8.60;7.80;;;;;;;15.62;82.98;96347.92;109107;1274;23853;-82
2023/05/24 02:10:16;;;;;;;8.80;7.60;;;;;;;15.61;83.34;96345.42;109066;1268;22479;-82
2023/05/24 02:12:52;;;;;;;10.40;7.80;;;;;;;15.60;83.36;96345.88;109118;1267;30638;-82
2023/05/24 02:15:30;;;;;;;7.90;7.10;;;;;;;15.56;83.63;96343.20;109098;1273;22528;-82
2023/05/24 02:18:07;;;;;;;8.70;6.50;;;;;;;15.58;83.92;96341.91;109130;1267;22537;-82
2023/05/24 02:20:39;;;;;;;9.70;7.00;;;;;;;15.55;83.75;96338.13;109129;1251;22554;-81
2023/05/24 02:23:10;;;;;;;8.10;7.20;;;;;;;15.52;84.00;96339.83;109040;1270;44878;-82
2023/05/24 02:25:41;;;;;;;7.50;6.70;;;;;;;15.48;84.19;96336.27;109100;1271;22603;-82
2023/05/24 02:28:15;;;;;;;9.00;7.70;;;;;;;15.46;84.45;96336.80;109086;1267;22556;-82
2023/05/24 02:30:48;;;;;;;10.00;7.20;;;;;;;15.45;84.65;96338.90;109105;1273;24256;-82
2023/05/24 02:33:19;;;;;;;9.40;7.20;;;;;;;15.43;84.84;96336.52;109039;1273;69262;-82
2023/05/24 02:35:54;;;;;;;7.90;7.10;;;;;;;15.40;84.91;96334.95;109121;1267;22525;-82
2023/05/24 02:38:25;;;;;;;9.10;7.90;;;;;;;15.39;85.18;96335.77;109089;1273;23937;-82
2023/05/24 02:40:57;;;;;;;8.40;7.50;;;;;;;15.39;85.49;96338.29;109103;1251;23035;-82
2023/05/24 02:43:28;;;;;;;9.60;7.90;;;;;;;15.40;85.60;96341.30;109086;1273;73707;-80
2023/05/24 02:45:59;;;;;;;8.40;7.50;;;;;;;15.43;85.76;96341.27;109113;1270;22518;-80
2023/05/24 02:48:31;;;;;;;8.30;7.40;;;;;;;15.46;85.87;96340.38;109105;1270;23824;-80
2023/05/24 02:51:03;;;;;;;8.10;7.30;;;;;;;15.50;85.95;96341.50;109138;1273;22529;-80
2023/05/24 02:53:34;;;;;;;10.00;7.70;;;;;;;15.54;86.04;96339.83;109069;1270;67632;-80
2023/05/24 02:56:13;;;;;;;8.70;7.60;;;;;;;15.55;86.02;96341.64;109046;1251;22810;-80
2023/05/24 02:58:45;;;;;;;9.00;7.50;;;;;;;15.54;85.78;96341.27;109077;1267;22494;-80
2023/05/24 03:01:20;;;;;;;10.40;8.60;;;;;;;15.50;85.86;96348.59;109085;1267;22530;-80
2023/05/24 03:03:54;;;;;;;9.80;8.60;;;;;;;15.47;86.21;96344.40;109043;1273;56629;-80
2023/05/24 03:06:28;;;;;;;10.50;8.80;;;;;;;15.47;86.33;96342.89;109075;1267;22559;-80
2023/05/24 03:09:03;;;;;;;10.80;9.50;;;;;;;15.48;86.58;96343.76;109042;1266;23821;-80
2023/05/24 03:11:40;;;;;;;11.00;9.50;;;;;;;15.51;86.64;96348.26;109035;1267;76441;-80
2023/05/24 03:14:12;;;;;;;10.40;9.30;;;;;;;15.51;86.64;96351.52;109091;1251;22486;-80
2023/05/24 03:16:46;;;;;;;10.90;9.50;;;;;;;15.51;86.84;96352.52;109048;1273;22494;-81
2023/05/24 03:19:21;;;;;;;12.00;10.50;;;;;;;15.53;86.86;96348.66;109083;1267;23897;-76
2023/05/24 03:21:54;;;;;;;11.00;9.80;;;;;;;15.55;86.96;96351.92;109046;1271;25396;-76
2023/05/24 03:24:26;;;;;;;10.20;9.10;;;;;;;15.55;86.81;96358.20;109035;1273;22480;-77
2023/05/24 03:26:57;;;;;;;11.20;9.80;;;;;;;15.51;86.86;96353.82;109074;1273;24212;-76
2023/05/24 03:29:30;;;;;;;12.90;9.40;;;;;;;15.48;87.14;96355.38;109088;1273;22481;-76
2023/05/24 03:32:01;;;;;;;10.90;9.20;;;;;;;15.45;87.17;96360.65;109082;1267;22818;-76
2023/05/24 03:34:34;;;;;;;11.10;9.90;;;;;;;15.41;87.19;96364.30;109117;1273;22565;-76
2023/05/24 03:37:08;;;;;;;10.80;9.50;;;;;;;15.39;87.43;96363.23;109086;1267;23786;-76
2023/05/24 03:39:50;;;;;;;10.70;9.50;;;;;;;15.39;87.75;96366.07;109067;1270;22567;-77
2023/05/24 03:42:23;;;;;;;11.00;9.80;;;;;;;15.38;87.78;96366.10;109038;1269;24100;-76
2023/05/24 03:44:55;;;;;;;9.30;8.30;;;;;;;15.40;88.01;96368.17;109111;1270;22484;-76
2023/05/24 03:47:26;;;;;;;11.00;9.30;;;;;;;15.39;87.91;96366.67;109050;1273;22469;-76
2023/05/24 03:49:57;;;;;;;10.20;9.10;;;;;;;15.37;88.22;96370.80;109081;1267;25605;-76
2023/05/24 03:52:31;;;;;;;10.60;9.50;;;;;;;15.36;88.36;96374.38;109081;1273;25403;-77
2023/05/24 03:55:06;;;;;;;12.00;10.80;;;;;;;15.34;88.53;96374.58;109101;1267;23858;-77
2023/05/24 03:57:37;;;;;;;12.00;9.90;;;;;;;15.34;88.69;96378.69;109117;1250;22686;-76
2023/05/24 04:00:14;;;;;;;11.10;9.80;;;;;;;15.35;88.81;96377.77;109042;1267;22485;-76
2023/05/24 04:02:46;;;;;;;13.30;11.00;;;;;;;15.35;89.02;96381.70;109081;1267;22560;-76
2023/05/24 04:05:17;;;;;;;12.90;11.60;;;;;;;15.37;89.18;96387.35;109129;1270;23675;-76
2023/05/24 04:07:49;;;;;;;14.50;12.40;;;;;;;15.39;89.43;96390.61;109043;1269;22453;-76
2023/05/24 04:10:23;;;;;;;19.90;17.80;;;;;;;15.39;89.47;96388.52;109051;1273;22531;-76
2023/05/24 04:12:56;;;;;;;25.60;22.90;;;;;;;15.42;89.75;96386.02;109027;1266;25439;-76
2023/05/24 04:15:27;;;;;;;29.10;26.00;;;;;;;15.45;89.76;96392.71;109043;1269;22462;-76
2023/05/24 04:17:59;;;;;;;29.40;26.40;;;;;;;15.47;89.66;96392.61;109054;1270;22576;-76
2023/05/24 04:20:32;;;;;;;30.10;26.40;;;;;;;15.44;89.26;96390.55;109084;1267;22793;-76
2023/05/24 04:23:03;;;;;;;30.40;27.30;;;;;;;15.43;89.49;96390.80;109026;1268;22542;-76
2023/05/24 04:25:37;;;;;;;29.90;26.60;;;;;;;15.43;89.31;96388.88;109086;1274;25400;-76
2023/05/24 04:28:09;;;;;;;30.90;27.40;;;;;;;15.43;89.37;96390.42;109064;1273;22575;-76
2023/05/24 04:30:44;;;;;;;30.00;26.90;;;;;;;15.43;89.51;96391.59;109103;1266;23308;-76
2023/05/24 04:33:18;;;;;;;32.10;28.80;;;;;;;15.42;89.34;96396.71;109044;1273;22543;-76
2023/05/24 04:35:52;;;;;;;32.50;28.00;;;;;;;15.43;89.78;96399.03;109122;1267;22737;-76
2023/05/24 04:38:23;;;;;;;32.30;28.40;;;;;;;15.45;89.93;96400.66;109075;1269;25233;-76
2023/05/24 04:40:57;;;;;;;32.40;28.90;;;;;;;15.49;89.93;96407.56;109076;1273;22479;-76
2023/05/24 04:43:31;;;;;;;32.40;29.10;;;;;;;15.53;89.95;96411.67;109082;1267;22520;-76
2023/05/24 04:46:06;;;;;;;30.90;27.80;;;;;;;15.56;90.00;96413.19;109049;1273;22676;-76
2023/05/24 04:48:38;;;;;;;33.00;29.60;;;;;;;15.59;89.90;96418.31;109026;1267;22584;-76
2023/05/24 04:51:12;;;;;;;33.40;29.90;;;;;;;15.61;89.85;96419.27;109058;1273;22581;-77
2023/05/24 04:53:43;;;;;;;33.00;29.80;;;;;;;15.61;89.70;96417.95;109074;1273;22605;-76
2023/05/24 04:56:15;;;;;;;31.50;28.20;;;;;;;15.60;89.59;96420.02;109151;1273;22515;-76
2023/05/24 04:58:48;;;;;;;33.10;29.90;;;;;;;15.58;89.39;96420.23;109126;1273;22568;-76
2023/05/24 05:01:19;;;;;;;29.80;26.70;;;;;;;15.55;89.56;96423.52;109137;1273;22534;-76
2023/05/24 05:03:50;;;;;;;33.00;29.80;;;;;;;15.49;89.12;96430.27;109143;1273;25939;-76
2023/05/24 05:06:21;;;;;;;31.70;28.60;;;;;;;15.43;89.31;96433.48;109112;1268;22524;-76
2023/05/24 05:08:52;;;;;;;30.60;27.60;;;;;;;15.45;89.62;96436.74;109112;1273;22518;-76
2023/05/24 05:11:24;;;;;;;31.50;28.40;;;;;;;15.45;89.67;96440.27;109084;1273;23302;-76
2023/05/24 05:13:55;;;;;;;29.50;26.60;;;;;;;15.47;89.92;96445.45;109150;1254;22780;-76
2023/05/24 05:16:26;;;;;;;29.70;26.90;;;;;;;15.48;89.81;96449.02;109096;1264;22850;-76
2023/05/24 05:18:59;;;;;;;30.00;27.00;;;;;;;15.46;89.48;96451.90;109092;1273;25240;-76
2023/05/24 05:21:31;;;;;;;29.90;27.00;;;;;;;15.45;89.77;96458.97;109122;1273;22693;-76
2023/05/24 05:24:03;;;;;;;30.90;27.80;;;;;;;15.46;89.88;96463.42;109012;1274;22616;-76
2023/05/24 05:26:34;;;;;;;31.70;28.50;;;;;;;15.47;89.93;96466.98;109030;1269;23861;-76
2023/05/24 05:29:05;;;;;;;32.00;28.90;;;;;;;15.46;90.04;96468.61;109008;1271;22650;-76
2023/05/24 05:31:36;;;;;;;36.70;32.80;;;;;;;15.46;90.18;96465.94;109031;1273;25279;-76
2023/05/24 05:34:08;;;;;;;38.30;34.30;;;;;;;15.46;90.13;96467.77;109066;1269;24707;-76
2023/05/24 05:36:41;;;;;;;38.40;34.30;;;;;;;15.44;89.98;96468.45;109108;1273;24033;-76
2023/05/24 05:39:13;;;;;;;39.50;35.20;;;;;;;15.38;89.85;96466.98;109140;1273;22461;-77
2023/05/24 05:41:45;;;;;;;43.10;38.40;;;;;;;15.34;89.90;96474.36;109115;1266;22549;-76
2023/05/24 05:44:16;;;;;;;42.00;37.40;;;;;;;15.32;90.10;96478.67;109119;1273;22725;-77
2023/05/24 05:46:47;;;;;;;42.60;37.80;;;;;;;15.29;90.08;96477.70;109151;1273;24885;-76
2023/05/24 05:49:18;;;;;;;44.60;36.70;;;;;;;15.27;90.29;96478.96;109107;1273;22558;-76
2023/05/24 05:51:51;;;;;;;41.70;35.20;;;;;;;15.26;90.36;96487.53;109138;1273;22632;-76
2023/05/24 05:54:22;;;;;;;42.60;36.20;;;;;;;15.20;90.15;96483.31;109160;1273;22486;-76
2023/05/24 05:56:54;;;;;;;43.60;36.30;;;;;;;15.13;90.46;96490.17;109056;1251;22639;-76
2023/05/24 05:59:25;;;;;;;40.90;35.30;;;;;;;15.11;90.45;96498.36;109051;1273;22502;-77
2023/05/24 06:01:56;;;;;;;37.50;33.20;;;;;;;15.08;90.70;96496.20;109072;1266;23968;-77
2023/05/24 06:04:27;;;;;;;39.90;33.80;;;;;;;15.06;90.83;96497.91;109132;1265;23875;-77
2023/05/24 06:06:58;;;;;;;39.00;33.90;;;;;;;15.05;91.07;96503.95;109098;1267;22818;-76
2023/05/24 06:09:29;;;;;;;39.90;33.70;;;;;;;15.06;91.44;96505.33;109090;1273;22573;-76
2023/05/24 06:12:01;;;;;;;39.00;33.80;;;;;;;15.10;91.74;96512.60;109098;1270;25373;-76
2023/05/24 06:14:33;;;;;;;38.20;32.20;;;;;;;15.10;91.54;96510.02;109150;1273;22528;-76
2023/05/24 06:17:04;;;;;;;39.30;33.20;;;;;;;15.06;91.37;96515.62;109079;1268;22528;-76
2023/05/24 06:19:37;;;;;;;38.60;32.40;;;;;;;15.06;91.95;96523.21;109070;1273;22565;-76
2023/05/24 06:22:08;;;;;;;35.80;32.00;;;;;;;15.12;92.53;96524.98;109077;1274;22650;-76
2023/05/24 06:24:41;;;;;;;35.70;30.80;;;;;;;15.17;92.60;96530.65;109133;1266;22535;-76
2023/05/24 06:27:12;;;;;;;34.50;29.90;;;;;;;15.22;92.57;96532.71;109086;1273;22618;-76
2023/05/24 06:29:43;;;;;;;33.00;29.50;;;;;;;15.25;92.44;96535.67;109111;1273;22529;-76
2023/05/24 06:32:14;;;;;;;34.40;30.70;;;;;;;15.23;91.91;96543.27;109116;1273;22533;-77
2023/05/24 06:34:45;;;;;;;36.20;32.10;;;;;;;15.20;92.22;96544.13;109147;1273;23788;-76
2023/05/24 06:37:16;;;;;;;33.00;29.60;;;;;;;15.15;92.21;96546.02;109150;1273;22530;-76
2023/05/24 06:39:47;;;;;;;35.40;30.70;;;;;;;15.14;92.17;96550.71;109130;1273;24307;-76
2023/05/24 06:42:18;;;;;;;32.90;29.10;;;;;;;15.13;92.03;96549.58;109135;1273;23355;-76
2023/05/24 06:44:49;;;;;;;34.20;30.60;;;;;;;15.13;92.19;96556.67;109087;1273;25266;-76
2023/05/24 06:47:20;;;;;;;31.00;27.80;;;;;;;15.14;92.28;96558.81;109160;1273;23866;-76
2023/05/24 06:49:53;;;;;;;30.90;27.60;;;;;;;15.18;92.26;96563.70;109147;1270;24341;-76
2023/05/24 06:52:24;;;;;;;28.30;25.50;;;;;;;15.20;92.25;96563.86;109027;1267;62367;-77
2023/05/24 06:54:55;;;;;;;29.40;25.60;;;;;;;15.17;91.93;96569.66;109083;1267;23802;-76
2023/05/24 06:57:31;;;;;;;29.50;25.10;;;;;;;15.18;92.18;96570.64;109075;1273;22958;-76
2023/05/24 07:00:07;;;;;;;26.80;24.20;;;;;;;15.22;92.38;96575.83;109171;1266;22519;-76
2023/05/24 07:02:38;;;;;;;26.60;23.70;;;;;;;15.23;92.46;96574.35;109121;1273;22458;-76
2023/05/24 07:05:11;;;;;;;33.40;29.50;;;;;;;15.25;92.48;96575.86;109095;1273;22459;-77
2023/05/24 07:07:43;;;;;;;34.80;31.10;;;;;;;15.24;92.59;96580.89;109120;1267;22563;-77
2023/05/24 07:10:14;;;;;;;40.10;35.70;;;;;;;15.21;92.63;96580.80;109142;1273;23835;-76
2023/05/24 07:12:45;;;;;;;36.20;32.40;;;;;;;15.19;92.65;96581.30;109120;1273;22572;-77
2023/05/24 07:15:16;;;;;;;35.40;31.50;;;;;;;15.15;92.65;96583.70;109131;1250;22789;-77
2023/05/24 07:17:47;;;;;;;32.40;29.20;;;;;;;15.14;92.84;96588.19;109161;1267;22617;-77
2023/05/24 07:20:20;;;;;;;32.00;28.70;;;;;;;15.13;92.85;96591.98;109141;1266;22524;-76
2023/05/24 07:22:52;;;;;;;34.80;31.10;;;;;;;15.10;92.94;96593.92;109137;1273;22472;-77
2023/05/24 07:25:23;;;;;;;33.10;29.30;;;;;;;15.08;93.10;96596.87;109110;1268;22476;-77
2023/05/24 07:27:54;;;;;;;34.30;30.80;;;;;;;15.13;93.52;96604.30;109148;1273;22491;-76
2023/05/24 07:30:26;;;;;;;32.80;29.30;;;;;;;15.17;93.52;96607.30;109167;1273;24366;-76
2023/05/24 07:32:57;;;;;;;32.30;27.80;;;;;;;15.14;93.28;96605.27;109091;1266;23871;-77
2023/05/24 07:35:29;;;;;;;31.60;28.40;;;;;;;15.09;92.98;96607.02;109139;1272;22617;-77
2023/05/24 07:38:01;;;;;;;30.80;27.40;;;;;;;15.13;93.15;96611.15;109119;1268;22572;-76
2023/05/24 07:40:32;;;;;;;32.00;28.60;;;;;;;15.19;93.39;96611.89;109136;1273;22528;-76
2023/05/24 07:43:03;;;;;;;34.50;30.80;;;;;;;15.23;93.44;96609.73;109121;1269;22549;-77
2023/05/24 07:45:35;;;;;;;34.50;30.70;;;;;;;15.21;93.24;96612.30;109095;1273;23686;-76
2023/05/24 07:48:05;;;;;;;33.30;29.80;;;;;;;15.19;93.35;96612.73;109130;1273;22564;-76
2023/05/24 07:50:37;;;;;;;35.80;32.10;;;;;;;15.23;93.60;96617.20;109147;1266;22462;-77
2023/05/24 07:53:08;;;;;;;35.60;31.90;;;;;;;15.27;93.74;96623.82;109174;1273;22670;-76
2023/05/24 07:55:39;;;;;;;34.00;30.40;;;;;;;15.29;93.79;96623.70;109153;1273;23786;-76
2023/05/24 07:58:11;;;;;;;34.60;31.10;;;;;;;15.31;93.98;96624.98;109132;1268;23314;-76
2023/05/24 08:00:42;;;;;;;34.50;31.00;;;;;;;15.32;93.92;96628.89;109144;1273;22606;-76
2023/05/24 08:03:14;;;;;;;34.20;30.70;;;;;;;15.36;94.13;96628.55;109148;1273;22653;-76
2023/05/24 08:05:45;;;;;;;34.30;30.60;;;;;;;15.41;94.12;96627.86;109126;1268;22616;-76
2023/05/24 08:08:16;;;;;;;30.20;27.20;;;;;;;15.45;94.21;96630.17;109138;1273;22550;-76
2023/05/24 08:10:47;;;;;;;31.20;28.00;;;;;;;15.44;94.06;96628.10;109190;1273;23821;-76
2023/05/24 08:13:17;;;;;;;32.70;29.30;;;;;;;15.43;94.07;96632.17;109142;1267;22499;-76
2023/05/24 08:15:48;;;;;;;31.30;28.00;;;;;;;15.41;94.16;96630.06;109104;1273;24728;-77
2023/05/24 08:18:19;;;;;;;29.50;26.50;;;;;;;15.39;94.12;96633.59;109046;1273;22478;-78
2023/05/24 08:20:51;;;;;;;28.40;25.60;;;;;;;15.39;94.18;96633.20;109128;1273;22653;-77
2023/05/24 08:23:22;;;;;;;28.50;23.30;;;;;;;15.41;93.88;96634.65;109093;1273;22534;-76
2023/05/24 08:25:54;;;;;;;27.10;24.10;;;;;;;15.37;93.26;96636.09;109228;1268;22586;-78
2023/05/24 08:28:25;;;;;;;25.40;22.80;;;;;;;15.36;93.19;96637.16;109305;1273;22542;-78
2023/05/24 08:30:57;;;;;;;27.40;24.70;;;;;;;15.39;93.44;96643.04;109087;1267;22582;-79
2023/05/24 08:33:29;;;;;;;27.20;24.30;;;;;;;15.45;93.74;96641.92;109139;1273;24257;-79
2023/05/24 08:36:00;;;;;;;26.50;23.90;;;;;;;15.50;93.81;96639.72;109074;1273;22530;-78
2023/05/24 08:38:31;;;;;;;26.30;23.70;;;;;;;15.50;93.23;96641.48;109146;1266;23352;-79
2023/05/24 08:41:06;;;;;;;25.80;23.10;;;;;;;15.45;92.90;96651.41;109101;1273;22570;-79
2023/05/24 08:43:37;;;;;;;23.30;21.00;;;;;;;15.37;92.66;96653.99;109086;1273;25317;-79
2023/05/24 08:46:11;;;;;;;22.10;19.90;;;;;;;15.25;92.41;96652.94;109106;1273;22563;-78
2023/05/24 08:48:47;;;;;;;18.60;16.10;;;;;;;15.16;92.56;96654.17;109140;1273;23268;-80
2023/05/24 08:51:18;;;;;;;15.90;14.30;;;;;;;15.06;92.35;96657.36;109102;1273;22528;-79
2023/05/24 08:53:53;;;;;;;13.70;12.30;;;;;;;14.96;92.26;96662.25;109133;1272;22558;-79
2023/05/24 08:56:28;;;;;;;14.80;12.00;;;;;;;14.84;92.38;96665.79;109037;1266;23950;-81
2023/05/24 08:58:58;;;;;;;11.90;10.60;;;;;;;14.77;92.27;96668.25;109069;1273;23240;-80
2023/05/24 09:01:32;;;;;;;15.50;12.10;;;;;;;14.68;92.45;96670.20;109164;1273;23214;-80
2023/05/24 09:04:04;;;;;;;11.90;10.60;;;;;;;14.60;92.31;96673.29;109118;1273;22540;-81
2023/05/24 09:06:44;;;;;;;12.00;10.90;;;;;;;14.45;92.33;96679.17;109114;1269;23782;-78
2023/05/24 09:09:17;;;;;;;13.80;11.60;;;;;;;14.35;92.39;96682.52;109139;1267;22500;-79
2023/05/24 09:11:52;;;;;;;12.70;11.40;;;;;;;14.30;93.10;96684.48;109144;1273;24315;-79
2023/05/24 09:14:23;;;;;;;13.50;12.10;;;;;;;14.28;93.18;96694.63;109066;1273;22553;-79
2023/05/24 09:16:55;;;;;;;14.10;12.70;;;;;;;14.25;93.44;96699.16;109114;1274;22609;-78
2023/05/24 09:19:27;;;;;;;13.20;11.80;;;;;;;14.26;93.62;96702.20;109154;1270;22742;-78
2023/05/24 09:21:59;;;;;;;13.70;12.20;;;;;;;14.24;93.58;96706.23;109097;1268;23230;-78
2023/05/24 09:24:30;;;;;;;14.00;12.10;;;;;;;14.24;93.90;96714.02;109189;1269;25320;-78
2023/05/24 09:27:06;;;;;;;15.20;12.80;;;;;;;14.25;93.93;96711.38;109143;1266;22939;-79
2023/05/24 09:29:44;;;;;;;14.20;12.70;;;;;;;14.20;93.46;96715.11;109131;1262;22565;-79
2023/05/24 09:32:17;;;;;;;16.20;14.40;;;;;;;14.11;93.41;96715.23;109127;1273;23672;-80
2023/05/24 09:34:48;;;;;;;14.90;12.60;;;;;;;14.05;93.52;96721.09;109147;1268;22628;-80
2023/05/24 09:37:22;;;;;;;14.50;13.00;;;;;;;14.00;93.57;96725.21;109051;1266;22471;-80
2023/05/24 09:39:55;;;;;;;12.60;11.20;;;;;;;13.95;93.79;96725.89;109016;1273;185247;-80
2023/05/24 09:42:29;;;;;;;13.60;11.90;;;;;;;13.92;93.93;96727.23;109162;1268;23983;-80
2023/05/24 09:45:05;;;;;;;12.70;11.40;;;;;;;13.93;94.26;96734.04;109153;1250;22649;-80
2023/05/24 09:47:38;;;;;;;11.80;10.60;;;;;;;13.95;94.50;96737.59;109169;1273;22527;-80
2023/05/24 09:50:16;;;;;;;12.00;10.50;;;;;;;13.96;94.42;96739.58;109122;1269;22561;-80
2023/05/24 09:52:47;;;;;;;13.50;11.60;;;;;;;13.96;94.23;96739.27;109153;1273;22570;-80
2023/05/24 09:55:21;;;;;;;12.10;10.80;;;;;;;13.93;94.18;96743.47;109125;1266;25407;-79
2023/05/24 09:58:11;;;;;;;12.90;11.60;;;;;;;13.88;93.81;96748.00;109126;1269;22458;-80
2023/05/24 10:00:44;;;;;;;12.80;11.10;;;;;;;13.80;93.95;96746.43;109197;1269;24225;-80
2023/05/24 10:03:17;;;;;;;11.50;10.30;;;;;;;13.75;94.12;96752.28;109171;1270;24876;-79
2023/05/24 10:05:54;;;;;;;12.10;10.10;;;;;;;13.78;94.67;96751.59;109130;1265;23812;-80
2023/05/24 10:08:26;;;;;;;13.40;11.10;;;;;;;13.78;94.31;96750.72;109140;1269;23132;-80
2023/05/24 10:11:04;;;;;;;13.40;12.00;;;;;;;13.71;94.01;96751.08;109152;1267;22569;-80
2023/05/24 10:13:38;;;;;;;13.60;11.60;;;;;;;13.65;94.34;96753.95;109121;1269;22606;-76
2023/05/24 10:16:09;;;;;;;12.90;11.20;;;;;;;13.59;94.17;96754.15;109111;1269;22508;-79
2023/05/24 10:18:41;;;;;;;13.60;12.10;;;;;;;13.51;94.28;96761.34;109122;1267;22539;-79
2023/05/24 10:21:16;;;;;;;11.80;10.50;;;;;;;13.47;94.55;96760.27;109166;1266;22647;-78
2023/05/24 10:23:57;;;;;;;12.60;10.80;;;;;;;13.40;94.58;96761.33;109165;1266;25266;-78
2023/05/24 10:26:32;;;;;;;12.50;11.10;;;;;;;13.33;94.70;96766.48;109187;1273;22553;-79
2023/05/24 10:29:11;;;;;;;11.40;10.00;;;;;;;13.30;95.06;96769.20;109179;1266;22679;-79
2023/05/24 10:31:44;;;;;;;10.80;9.70;;;;;;;13.29;95.28;96769.81;109178;1273;22763;-79
2023/05/24 10:34:16;;;;;;;10.70;9.60;;;;;;;13.29;95.53;96775.61;109201;1269;23822;-78
2023/05/24 10:36:47;;;;;;;12.10;9.40;;;;;;;13.30;95.59;96780.51;109167;1250;22650;-79
2023/05/24 10:39:22;;;;;;;10.40;9.10;;;;;;;13.35;96.04;96785.04;109193;1273;22461;-79
2023/05/24 10:41:57;;;;;;;11.90;9.60;;;;;;;13.42;96.27;96789.67;109175;1268;22473;-79
2023/05/24 10:44:31;;;;;;;12.20;9.00;;;;;;;13.49;95.97;96793.37;109157;1266;22568;-79
2023/05/24 10:47:09;;;;;;;9.10;8.10;;;;;;;13.47;95.42;96798.20;109125;1273;23754;-79
2023/05/24 10:49:50;;;;;;;12.30;9.30;;;;;;;13.49;95.69;96797.85;109260;1273;21799;-79
2023/05/24 10:52:33;;;;;;;10.00;8.90;;;;;;;13.53;95.65;96799.52;109190;1266;22607;-79
2023/05/24 10:55:08;;;;;;;9.90;8.80;;;;;;;13.57;95.47;96805.34;109143;1270;22510;-79
2023/05/24 10:57:41;;;;;;;10.80;9.00;;;;;;;13.57;94.93;96810.10;109150;1273;22722;-79
2023/05/24 11:00:33;;;;;;;11.00;9.40;;;;;;;13.52;94.55;96808.41;109201;1273;22573;-79
2023/05/24 11:03:08;;;;;;;10.10;9.00;;;;;;;13.43;94.37;96811.39;109201;1266;22468;-80
2023/05/24 11:05:54;;;;;;;11.20;9.60;;;;;;;13.37;94.15;96812.34;109127;1273;23840;-79
2023/05/24 11:08:32;;;;;;;9.80;8.80;;;;;;;13.28;94.23;96818.91;109364;1266;25252;-80
2023/05/24 11:11:10;;;;;;;9.60;8.10;;;;;;;13.23;94.22;96820.48;109165;1269;23363;-80
2023/05/24 11:13:43;;;;;;;10.40;8.80;;;;;;;13.17;94.06;96817.73;109189;1271;25450;-79
2023/05/24 11:16:37;;;;;;;12.80;10.70;;;;;;;13.08;94.13;96819.55;109225;1273;23103;-80
2023/05/24 11:23:02;;;;;;;11.30;9.30;;;;;;;13.07;94.70;96818.02;108437;1277;22551;-79
2023/05/24 11:25:36;;;;;;;12.50;10.10;;;;;;;13.06;94.53;96818.46;108645;1270;45698;-80
2023/05/24 11:28:11;;;;;;;11.30;10.00;;;;;;;13.05;94.60;96815.70;109119;1273;22494;-80
2023/05/24 11:30:46;;;;;;;11.40;9.40;;;;;;;13.08;94.71;96815.60;109176;1271;22604;-79
2023/05/24 11:33:21;;;;;;;11.70;10.50;;;;;;;13.08;94.51;96816.03;109164;1260;22518;-79
2023/05/24 11:35:55;;;;;;;11.80;9.90;;;;;;;13.12;94.71;96815.25;109261;1271;51496;-79
2023/05/24 11:38:27;;;;;;;13.70;12.00;;;;;;;13.20;95.20;96812.70;109165;1270;22510;-79
2023/05/24 11:41:00;;;;;;;12.60;11.20;;;;;;;13.28;95.41;96816.54;109123;1268;22638;-79
2023/05/24 11:43:32;;;;;;;12.80;10.90;;;;;;;13.35;95.41;96818.33;109156;1267;22489;-80
2023/05/24 11:46:05;;;;;;;13.00;10.50;;;;;;;13.41;95.32;96823.20;109162;1273;22652;-79
2023/05/24 11:48:38;;;;;;;13.50;11.40;;;;;;;13.48;95.31;96821.05;109165;1273;22560;-79